Bookmark and Share
Track history (hours):
 

Jrs Mira

Last reported at 2014-Apr-25 05:34 UTC. Time now 2014-Apr-25 06:21 UTC.
Position N 54°42' E 019°43'.

Length 107 m; draft 5.3 m.

Type: Cargo ship. MMSI: 305780000.

NotesDate/timePositionNaut miles runAvg speedWind from/ knotsBaromVisibWave heightAir tempDewpointWater temp
2014-Apr-25 05:34N 54°42' E 019°43'1111.4
2014-Apr-25 04:34N 54°48' E 019°25'1 0.5
2014-Apr-25 03:34N 54°47' E 019°26'1111.0
2014-Apr-25 02:34N 54°51' E 019°08'1111.5
2014-Apr-25 01:34N 54°41' E 018°59'1111.3
2014-Apr-25 00:34N 54°31' E 018°48'9 8.5
2014-Apr-24 23:34N 54°24' E 018°40'2 1.5
2014-Apr-24 22:31N 54°23' E 018°40'0 0.0
2014-Apr-24 21:31N 54°23' E 018°40'0 0.0
2014-Apr-24 20:31N 54°23' E 018°40'0 0.0
2014-Apr-24 19:31N 54°23' E 018°40'0 0.0
2014-Apr-24 18:31N 54°23' E 018°40'0 0.0
2014-Apr-24 17:31N 54°23' E 018°40'0 0.0
2014-Apr-24 16:31N 54°23' E 018°40'0 0.0
2014-Apr-24 15:31N 54°23' E 018°40'0 0.0
2014-Apr-24 14:31N 54°23' E 018°40'0 0.0
2014-Apr-24 13:31N 54°23' E 018°40'0 0.0
2014-Apr-24 12:31N 54°23' E 018°40'0 0.0
2014-Apr-24 11:31N 54°23' E 018°40'0 0.0
2014-Apr-24 10:31N 54°23' E 018°40'0 0.0
2014-Apr-24 09:31N 54°23' E 018°40'0 0.0
2014-Apr-24 08:31N 54°23' E 018°40'0 0.0
2014-Apr-24 07:31N 54°23' E 018°40'0 0.0
2014-Apr-24 06:31N 54°23' E 018°40'0 0.0
2014-Apr-24 05:31N 54°23' E 018°40'0 0.0
2014-Apr-24 04:31N 54°23' E 018°40'0 0.0
2014-Apr-24 03:31N 54°23' E 018°40'0 0.0
2014-Apr-24 02:31N 54°23' E 018°40'0 0.0
2014-Apr-24 01:31N 54°23' E 018°40'0 0.0
2014-Apr-24 00:31N 54°23' E 018°40'0 0.0
2014-Apr-23 23:31N 54°23' E 018°40'0 0.0
2014-Apr-23 22:31N 54°23' E 018°40'0 0.0
2014-Apr-23 21:31N 54°23' E 018°40'0 0.0
2014-Apr-23 20:31N 54°23' E 018°40'0 0.0
2014-Apr-23 19:31N 54°23' E 018°40'0 0.0
2014-Apr-23 18:31N 54°23' E 018°40'0 0.0
2014-Apr-23 17:31N 54°23' E 018°40'0 0.0
2014-Apr-23 16:31N 54°23' E 018°40'0 0.0
2014-Apr-23 15:31N 54°23' E 018°40'0 0.0
2014-Apr-23 14:31N 54°23' E 018°40'0 0.0
2014-Apr-23 13:33N 54°23' E 018°40'3 2.9
2014-Apr-23 12:33N 54°26' E 018°39'8 8.0
2014-Apr-23 11:33N 54°32' E 018°47'1010.4
2014-Apr-23 10:34N 54°41' E 018°57'8 8.3
2014-Apr-23 09:33N 54°49' E 018°52'1010.4
2014-Apr-23 08:33N 54°55' E 018°37'1010.2
2014-Apr-23 07:34N 54°55' E 018°20'1110.6
2014-Apr-23 06:33N 54°54' E 018°01'1010.5
2014-Apr-23 05:33N 54°54' E 017°43'1010.1
2014-Apr-23 04:33N 54°53' E 017°26'1510.2
2014-Apr-23 03:04N 54°50' E 016°60'610.4
2014-Apr-23 02:28N 54°48' E 016°49'4410.3
2014-Apr-22 22:13N 54°42' E 015°34'710.3
2014-Apr-22 21:33N 54°41' E 015°22'1010.3
2014-Apr-22 20:34N 54°39' E 015°05'1010.3
2014-Apr-22 19:34N 54°37' E 014°47'1010.4
2014-Apr-22 18:34N 54°36' E 014°30'10 9.6
2014-Apr-22 17:33N 54°37' E 014°13'10 9.9
2014-Apr-22 16:34N 54°40' E 013°57'1010.1
2014-Apr-22 15:33N 54°43' E 013°40'1110.6
2014-Apr-22 14:30N 54°45' E 013°21'1010.2
2014-Apr-22 13:33N 54°46' E 013°05'10 9.6
2014-Apr-22 12:32N 54°46' E 012°47'9 9.7
2014-Apr-22 11:33N 54°41' E 012°34'10 9.7
2014-Apr-22 10:34N 54°36' E 012°20'10 9.7
2014-Apr-22 09:34N 54°27' E 012°14'8 8.2
2014-Apr-22 08:34N 54°24' E 012°01'9 8.5
2014-Apr-22 07:33N 54°24' E 011°46'1010.0
2014-Apr-22 06:34N 54°29' E 011°31'9 9.0
2014-Apr-22 05:34N 54°33' E 011°17'8 8.5
2014-Apr-22 04:33N 54°35' E 011°03'53 7.2
2014-Apr-21 21:12N 54°17' E 009°38'5 7.8
2014-Apr-21 20:33N 54°12' E 009°34'8 8.3
2014-Apr-21 19:33N 54°09' E 009°21'8 8.3
2014-Apr-21 18:33N 54°01' E 009°18'5 4.7
2014-Apr-21 17:34N 53°57' E 009°14'4 3.7
2014-Apr-21 16:33N 53°54' E 009°09'2 2.0
2014-Apr-21 15:34N 53°53' E 009°06'0 0.4
2014-Apr-21 14:34N 53°53' E 009°06'1211.6
2014-Apr-21 13:34N 53°51' E 008°47'1313.2
2014-Apr-21 12:33N 53°58' E 008°29'1312.6
2014-Apr-21 11:33N 53°59' E 008°07'1111.2
2014-Apr-21 10:33N 53°57' E 007°49'1010.3
2014-Apr-21 09:33N 53°54' E 007°32'10 9.6
2014-Apr-21 08:33N 53°52' E 007°16'1010.3
2014-Apr-21 07:33N 53°50' E 006°59'1510.2
2014-Apr-21 06:04N 53°47' E 006°34'5 9.0
2014-Apr-21 05:32N 53°46' E 006°26'9 8.7
2014-Apr-21 04:30N 53°43' E 006°12'8 8.9
2014-Apr-21 03:33N 53°40' E 005°58'9 9.1
2014-Apr-21 02:33N 53°37' E 005°44'10 9.6
2014-Apr-21 01:34N 53°34' E 005°28'10 9.9
2014-Apr-21 00:33N 53°31' E 005°12'1010.2
2014-Apr-20 23:34N 53°27' E 004°57'1010.2
2014-Apr-20 22:34N 53°22' E 004°42'1111.3
2014-Apr-20 21:33N 53°12' E 004°33'1212.0
2014-Apr-20 20:33N 53°02' E 004°24'1211.9
2014-Apr-20 19:34N 52°51' E 004°15'1211.7
2014-Apr-20 18:33N 52°42' E 004°02'1111.4
2014-Apr-20 17:33N 52°34' E 003°49'64 9.1
2014-Apr-20 10:33N 51°47' E 002°38'8 8.4
2014-Apr-20 09:33N 51°40' E 002°30'9 9.1
2014-Apr-20 08:33N 51°33' E 002°20'10 9.6
2014-Apr-20 07:33N 51°26' E 002°10'1111.0
2014-Apr-20 06:33N 51°16' E 002°05'1210.3
2014-Apr-20 05:22N 51°08' E 001°49'1011.2
2014-Apr-20 04:29N 51°01' E 001°39'4410.9
2014-Apr-20 00:28N 50°29' E 000°53'1010.8
2014-Apr-19 23:34N 50°26' E 000°38'50 9.7
2014-Apr-19 18:23N 50°12' W 000°38'6 7.5
2014-Apr-19 17:32N 50°11' W 000°48'14 6.9
2014-Apr-19 15:34N 50°07' W 001°08'  
2014-Apr-16 04:08N 38°12' W 009°42'610.9
2014-Apr-16 03:33N 38°06' W 009°40'1110.7
2014-Apr-16 02:33N 37°55' W 009°37'1110.7
2014-Apr-16 01:33N 37°45' W 009°34'1110.5
2014-Apr-16 00:32N 37°34' W 009°30'62 9.6
2014-Apr-15 18:03N 36°40' W 008°52'  

Dump ship's entire track history

sailing weather and tide predictions

Jrs Mira — V2FS4 — position and weather